sensor_id;sensor_type;location;lat;lon;timestamp;temperature;humidity
22925;DHT22;11628;51.072;3.712;2023-04-25T00:01:15;12.40;99.90
22925;DHT22;11628;51.072;3.712;2023-04-25T00:03:40;12.30;99.90
22925;DHT22;11628;51.072;3.712;2023-04-25T00:06:06;12.30;99.90
22925;DHT22;11628;51.072;3.712;2023-04-25T00:08:33;12.30;99.90
22925;DHT22;11628;51.072;3.712;2023-04-25T00:10:59;12.40;99.90
22925;DHT22;11628;51.072;3.712;2023-04-25T00:13:25;12.30;99.90
22925;DHT22;11628;51.072;3.712;2023-04-25T00:15:51;12.30;99.90
22925;DHT22;11628;51.072;3.712;2023-04-25T00:18:22;12.30;99.90
22925;DHT22;11628;51.072;3.712;2023-04-25T00:20:48;12.30;99.90
22925;DHT22;11628;51.072;3.712;2023-04-25T00:23:15;12.20;99.90
22925;DHT22;11628;51.072;3.712;2023-04-25T00:25:47;12.20;99.90
22925;DHT22;11628;51.072;3.712;2023-04-25T00:28:13;12.20;99.90
22925;DHT22;11628;51.072;3.712;2023-04-25T00:30:40;12.20;99.90
22925;DHT22;11628;51.072;3.712;2023-04-25T00:33:06;12.20;99.90
22925;DHT22;11628;51.072;3.712;2023-04-25T00:35:32;12.20;99.90
22925;DHT22;11628;51.072;3.712;2023-04-25T00:37:58;12.20;99.90
22925;DHT22;11628;51.072;3.712;2023-04-25T00:40:24;12.20;99.90
22925;DHT22;11628;51.072;3.712;2023-04-25T00:42:52;12.10;99.90
22925;DHT22;11628;51.072;3.712;2023-04-25T00:45:18;12.10;99.90
22925;DHT22;11628;51.072;3.712;2023-04-25T00:47:45;12.10;99.90
22925;DHT22;11628;51.072;3.712;2023-04-25T00:50:12;12.00;99.90
22925;DHT22;11628;51.072;3.712;2023-04-25T00:52:43;12.00;99.90
22925;DHT22;11628;51.072;3.712;2023-04-25T00:55:11;12.00;99.90
22925;DHT22;11628;51.072;3.712;2023-04-25T00:57:37;12.00;99.90
22925;DHT22;11628;51.072;3.712;2023-04-25T01:00:04;12.00;99.90
22925;DHT22;11628;51.072;3.712;2023-04-25T01:02:34;12.00;99.90
22925;DHT22;11628;51.072;3.712;2023-04-25T01:05:01;12.00;99.90
22925;DHT22;11628;51.072;3.712;2023-04-25T01:07:27;12.00;99.90
22925;DHT22;11628;51.072;3.712;2023-04-25T01:09:53;12.00;99.90
22925;DHT22;11628;51.072;3.712;2023-04-25T01:12:18;12.00;99.90
22925;DHT22;11628;51.072;3.712;2023-04-25T01:14:44;12.00;99.90
22925;DHT22;11628;51.072;3.712;2023-04-25T01:17:11;12.00;99.90
22925;DHT22;11628;51.072;3.712;2023-04-25T01:19:37;11.90;99.90
22925;DHT22;11628;51.072;3.712;2023-04-25T01:22:03;11.90;99.90
22925;DHT22;11628;51.072;3.712;2023-04-25T01:24:30;11.90;99.90
22925;DHT22;11628;51.072;3.712;2023-04-25T01:26:58;11.90;99.90
22925;DHT22;11628;51.072;3.712;2023-04-25T01:29:24;11.90;99.90
22925;DHT22;11628;51.072;3.712;2023-04-25T01:31:52;11.90;99.90
22925;DHT22;11628;51.072;3.712;2023-04-25T01:34:18;11.90;99.90
22925;DHT22;11628;51.072;3.712;2023-04-25T01:36:44;11.80;99.90
22925;DHT22;11628;51.072;3.712;2023-04-25T01:39:10;11.80;99.90
22925;DHT22;11628;51.072;3.712;2023-04-25T01:41:36;11.80;99.90
22925;DHT22;11628;51.072;3.712;2023-04-25T01:44:02;11.80;99.90
22925;DHT22;11628;51.072;3.712;2023-04-25T01:46:28;11.90;99.90
22925;DHT22;11628;51.072;3.712;2023-04-25T01:48:54;11.80;99.90
22925;DHT22;11628;51.072;3.712;2023-04-25T01:51:20;11.80;99.90
22925;DHT22;11628;51.072;3.712;2023-04-25T01:53:46;11.80;99.90
22925;DHT22;11628;51.072;3.712;2023-04-25T01:56:11;11.80;99.90
22925;DHT22;11628;51.072;3.712;2023-04-25T01:58:37;11.70;99.90
22925;DHT22;11628;51.072;3.712;2023-04-25T02:01:03;11.70;99.90
22925;DHT22;11628;51.072;3.712;2023-04-25T02:03:30;11.70;99.90
22925;DHT22;11628;51.072;3.712;2023-04-25T02:05:56;11.70;99.90
22925;DHT22;11628;51.072;3.712;2023-04-25T02:08:22;11.70;99.90
22925;DHT22;11628;51.072;3.712;2023-04-25T02:10:48;11.60;99.90
22925;DHT22;11628;51.072;3.712;2023-04-25T02:13:14;11.60;99.90
22925;DHT22;11628;51.072;3.712;2023-04-25T02:15:39;11.60;99.90
22925;DHT22;11628;51.072;3.712;2023-04-25T02:18:06;11.50;99.90
22925;DHT22;11628;51.072;3.712;2023-04-25T02:20:32;11.40;99.90
22925;DHT22;11628;51.072;3.712;2023-04-25T02:22:58;11.40;99.90
22925;DHT22;11628;51.072;3.712;2023-04-25T02:25:24;11.40;99.90
22925;DHT22;11628;51.072;3.712;2023-04-25T02:27:50;11.40;99.90
22925;DHT22;11628;51.072;3.712;2023-04-25T02:30:16;11.40;99.90
22925;DHT22;11628;51.072;3.712;2023-04-25T02:32:42;11.30;99.90
22925;DHT22;11628;51.072;3.712;2023-04-25T02:35:08;11.30;99.90
22925;DHT22;11628;51.072;3.712;2023-04-25T02:37:35;11.30;99.90
22925;DHT22;11628;51.072;3.712;2023-04-25T02:40:01;11.30;99.90
22925;DHT22;11628;51.072;3.712;2023-04-25T02:42:28;11.30;99.90
22925;DHT22;11628;51.072;3.712;2023-04-25T02:44:54;11.30;99.90
22925;DHT22;11628;51.072;3.712;2023-04-25T02:47:20;11.30;99.90
22925;DHT22;11628;51.072;3.712;2023-04-25T02:49:46;11.30;99.90
22925;DHT22;11628;51.072;3.712;2023-04-25T02:52:12;11.30;99.90
22925;DHT22;11628;51.072;3.712;2023-04-25T02:54:38;11.20;99.90
22925;DHT22;11628;51.072;3.712;2023-04-25T02:57:04;11.20;99.90
22925;DHT22;11628;51.072;3.712;2023-04-25T02:59:30;11.10;99.90
22925;DHT22;11628;51.072;3.712;2023-04-25T03:01:55;11.10;99.90
22925;DHT22;11628;51.072;3.712;2023-04-25T03:04:21;11.10;99.90
22925;DHT22;11628;51.072;3.712;2023-04-25T03:06:49;11.10;99.90
22925;DHT22;11628;51.072;3.712;2023-04-25T03:09:15;11.00;99.90
22925;DHT22;11628;51.072;3.712;2023-04-25T03:11:41;11.00;99.90
22925;DHT22;11628;51.072;3.712;2023-04-25T03:14:07;11.00;99.90
22925;DHT22;11628;51.072;3.712;2023-04-25T03:16:33;10.90;99.90
22925;DHT22;11628;51.072;3.712;2023-04-25T03:18:59;10.90;99.90
22925;DHT22;11628;51.072;3.712;2023-04-25T03:21:25;10.90;99.90
22925;DHT22;11628;51.072;3.712;2023-04-25T03:23:51;10.90;99.90
22925;DHT22;11628;51.072;3.712;2023-04-25T03:26:17;10.90;99.90
22925;DHT22;11628;51.072;3.712;2023-04-25T03:28:43;10.80;99.90
22925;DHT22;11628;51.072;3.712;2023-04-25T03:31:09;10.90;99.90
22925;DHT22;11628;51.072;3.712;2023-04-25T03:33:34;10.90;99.90
22925;DHT22;11628;51.072;3.712;2023-04-25T03:36:00;10.80;99.90
22925;DHT22;11628;51.072;3.712;2023-04-25T03:38:26;10.80;99.90
22925;DHT22;11628;51.072;3.712;2023-04-25T03:40:52;10.70;99.90
22925;DHT22;11628;51.072;3.712;2023-04-25T03:43:18;10.60;99.90
22925;DHT22;11628;51.072;3.712;2023-04-25T03:45:44;10.60;99.90
22925;DHT22;11628;51.072;3.712;2023-04-25T03:48:09;10.60;99.90
22925;DHT22;11628;51.072;3.712;2023-04-25T03:50:35;10.50;99.90
22925;DHT22;11628;51.072;3.712;2023-04-25T03:53:01;10.40;99.90
22925;DHT22;11628;51.072;3.712;2023-04-25T03:55:26;10.50;99.90
22925;DHT22;11628;51.072;3.712;2023-04-25T03:57:52;10.50;99.90
22925;DHT22;11628;51.072;3.712;2023-04-25T04:00:18;10.50;99.90
22925;DHT22;11628;51.072;3.712;2023-04-25T04:02:43;10.50;99.90
22925;DHT22;11628;51.072;3.712;2023-04-25T04:05:09;10.50;99.90
22925;DHT22;11628;51.072;3.712;2023-04-25T04:07:35;10.50;99.90
22925;DHT22;11628;51.072;3.712;2023-04-25T04:10:06;10.50;99.90
22925;DHT22;11628;51.072;3.712;2023-04-25T04:12:33;10.50;99.90
22925;DHT22;11628;51.072;3.712;2023-04-25T04:14:58;10.50;99.90
22925;DHT22;11628;51.072;3.712;2023-04-25T04:17:24;10.50;99.90
22925;DHT22;11628;51.072;3.712;2023-04-25T04:19:50;10.50;99.90
22925;DHT22;11628;51.072;3.712;2023-04-25T04:22:16;10.50;99.90
22925;DHT22;11628;51.072;3.712;2023-04-25T04:24:41;10.50;99.90
22925;DHT22;11628;51.072;3.712;2023-04-25T04:27:11;10.60;99.90
22925;DHT22;11628;51.072;3.712;2023-04-25T04:29:38;10.50;99.90
22925;DHT22;11628;51.072;3.712;2023-04-25T04:32:04;10.60;99.90
22925;DHT22;11628;51.072;3.712;2023-04-25T04:34:30;10.60;99.90
22925;DHT22;11628;51.072;3.712;2023-04-25T04:36:56;10.60;99.90
22925;DHT22;11628;51.072;3.712;2023-04-25T04:39:22;10.60;99.90
22925;DHT22;11628;51.072;3.712;2023-04-25T04:41:48;10.60;99.90
22925;DHT22;11628;51.072;3.712;2023-04-25T04:44:14;10.60;99.90
22925;DHT22;11628;51.072;3.712;2023-04-25T04:46:40;10.70;99.90
22925;DHT22;11628;51.072;3.712;2023-04-25T04:49:11;10.70;99.90
22925;DHT22;11628;51.072;3.712;2023-04-25T04:51:38;10.70;99.90
22925;DHT22;11628;51.072;3.712;2023-04-25T04:54:04;10.60;99.90
22925;DHT22;11628;51.072;3.712;2023-04-25T04:56:30;10.60;99.90
22925;DHT22;11628;51.072;3.712;2023-04-25T04:58:57;10.50;99.90
22925;DHT22;11628;51.072;3.712;2023-04-25T05:01:23;10.50;99.90
22925;DHT22;11628;51.072;3.712;2023-04-25T05:03:49;10.40;99.90
22925;DHT22;11628;51.072;3.712;2023-04-25T05:06:16;10.40;99.90
22925;DHT22;11628;51.072;3.712;2023-04-25T05:08:42;10.30;99.90
22925;DHT22;11628;51.072;3.712;2023-04-25T05:11:08;10.30;99.90
22925;DHT22;11628;51.072;3.712;2023-04-25T05:13:33;10.40;99.90
22925;DHT22;11628;51.072;3.712;2023-04-25T05:15:59;10.40;99.90
22925;DHT22;11628;51.072;3.712;2023-04-25T05:18:25;10.50;99.90
22925;DHT22;11628;51.072;3.712;2023-04-25T05:20:51;10.50;99.90
22925;DHT22;11628;51.072;3.712;2023-04-25T05:23:17;10.60;99.90
22925;DHT22;11628;51.072;3.712;2023-04-25T05:25:42;10.70;99.90
22925;DHT22;11628;51.072;3.712;2023-04-25T05:28:08;10.70;99.90
22925;DHT22;11628;51.072;3.712;2023-04-25T05:30:34;10.80;99.90
22925;DHT22;11628;51.072;3.712;2023-04-25T05:33:00;10.80;99.90
22925;DHT22;11628;51.072;3.712;2023-04-25T05:35:26;10.90;99.90
22925;DHT22;11628;51.072;3.712;2023-04-25T05:37:51;11.00;99.90
22925;DHT22;11628;51.072;3.712;2023-04-25T05:40:17;11.10;99.90
22925;DHT22;11628;51.072;3.712;2023-04-25T05:42:43;11.10;99.90
22925;DHT22;11628;51.072;3.712;2023-04-25T05:45:09;11.20;99.90
22925;DHT22;11628;51.072;3.712;2023-04-25T05:47:35;11.30;99.90
22925;DHT22;11628;51.072;3.712;2023-04-25T05:50:00;11.40;99.90
22925;DHT22;11628;51.072;3.712;2023-04-25T05:52:26;11.40;99.90
22925;DHT22;11628;51.072;3.712;2023-04-25T05:54:52;11.40;99.90
22925;DHT22;11628;51.072;3.712;2023-04-25T05:57:25;11.40;99.90
22925;DHT22;11628;51.072;3.712;2023-04-25T05:59:52;11.40;99.90
22925;DHT22;11628;51.072;3.712;2023-04-25T06:02:19;11.40;99.90
22925;DHT22;11628;51.072;3.712;2023-04-25T06:04:46;11.40;99.90
22925;DHT22;11628;51.072;3.712;2023-04-25T06:07:12;11.50;99.90
22925;DHT22;11628;51.072;3.712;2023-04-25T06:09:38;11.60;99.90
22925;DHT22;11628;51.072;3.712;2023-04-25T06:12:06;11.70;99.90
22925;DHT22;11628;51.072;3.712;2023-04-25T06:14:33;11.90;99.90
22925;DHT22;11628;51.072;3.712;2023-04-25T06:16:58;11.90;99.90
22925;DHT22;11628;51.072;3.712;2023-04-25T06:19:24;12.00;99.90
22925;DHT22;11628;51.072;3.712;2023-04-25T06:21:50;12.20;99.90
22925;DHT22;11628;51.072;3.712;2023-04-25T06:24:15;12.30;99.90
22925;DHT22;11628;51.072;3.712;2023-04-25T06:26:41;12.50;99.90
22925;DHT22;11628;51.072;3.712;2023-04-25T06:29:07;12.60;99.90
22925;DHT22;11628;51.072;3.712;2023-04-25T06:31:32;12.60;99.90
22925;DHT22;11628;51.072;3.712;2023-04-25T06:33:59;12.40;99.90
22925;DHT22;11628;51.072;3.712;2023-04-25T06:36:24;12.50;99.90
22925;DHT22;11628;51.072;3.712;2023-04-25T06:38:51;12.60;99.90
22925;DHT22;11628;51.072;3.712;2023-04-25T06:41:20;12.60;99.90
22925;DHT22;11628;51.072;3.712;2023-04-25T06:43:46;12.60;99.90
22925;DHT22;11628;51.072;3.712;2023-04-25T06:46:12;12.60;99.90
22925;DHT22;11628;51.072;3.712;2023-04-25T06:48:38;12.50;99.90
22925;DHT22;11628;51.072;3.712;2023-04-25T06:51:04;12.50;99.90
22925;DHT22;11628;51.072;3.712;2023-04-25T06:53:29;12.70;99.90
22925;DHT22;11628;51.072;3.712;2023-04-25T06:55:55;12.90;99.90
22925;DHT22;11628;51.072;3.712;2023-04-25T06:58:21;13.00;99.90
22925;DHT22;11628;51.072;3.712;2023-04-25T07:00:46;13.20;99.90
22925;DHT22;11628;51.072;3.712;2023-04-25T07:03:12;13.30;99.90
22925;DHT22;11628;51.072;3.712;2023-04-25T07:05:38;13.30;99.90
22925;DHT22;11628;51.072;3.712;2023-04-25T07:08:04;13.40;99.90
22925;DHT22;11628;51.072;3.712;2023-04-25T07:10:29;13.40;99.90
22925;DHT22;11628;51.072;3.712;2023-04-25T07:12:55;13.40;99.90
22925;DHT22;11628;51.072;3.712;2023-04-25T07:15:21;13.40;99.90
22925;DHT22;11628;51.072;3.712;2023-04-25T07:17:47;13.40;99.90
22925;DHT22;11628;51.072;3.712;2023-04-25T07:20:12;13.50;99.90
22925;DHT22;11628;51.072;3.712;2023-04-25T07:22:38;13.70;99.90
22925;DHT22;11628;51.072;3.712;2023-04-25T07:25:04;14.10;99.90
22925;DHT22;11628;51.072;3.712;2023-04-25T07:27:30;14.60;99.90
22925;DHT22;11628;51.072;3.712;2023-04-25T07:29:56;14.60;99.90
22925;DHT22;11628;51.072;3.712;2023-04-25T07:32:23;14.70;99.90
22925;DHT22;11628;51.072;3.712;2023-04-25T07:34:48;14.80;99.90
22925;DHT22;11628;51.072;3.712;2023-04-25T07:37:14;14.80;99.90
22925;DHT22;11628;51.072;3.712;2023-04-25T07:39:40;14.80;99.90
22925;DHT22;11628;51.072;3.712;2023-04-25T07:42:07;15.00;99.90
22925;DHT22;11628;51.072;3.712;2023-04-25T07:44:36;14.90;99.90
22925;DHT22;11628;51.072;3.712;2023-04-25T07:47:09;14.80;99.90
22925;DHT22;11628;51.072;3.712;2023-04-25T07:49:38;14.50;99.90
22925;DHT22;11628;51.072;3.712;2023-04-25T07:52:04;14.40;99.90
22925;DHT22;11628;51.072;3.712;2023-04-25T07:54:31;14.50;99.90
22925;DHT22;11628;51.072;3.712;2023-04-25T07:56:58;14.70;99.90
22925;DHT22;11628;51.072;3.712;2023-04-25T07:59:24;15.00;99.90
22925;DHT22;11628;51.072;3.712;2023-04-25T08:01:50;15.40;99.90
22925;DHT22;11628;51.072;3.712;2023-04-25T08:04:16;15.90;99.90
22925;DHT22;11628;51.072;3.712;2023-04-25T08:06:42;16.50;99.90
22925;DHT22;11628;51.072;3.712;2023-04-25T08:09:09;16.80;98.90
22925;DHT22;11628;51.072;3.712;2023-04-25T08:11:36;16.80;99.10
22925;DHT22;11628;51.072;3.712;2023-04-25T08:14:02;16.60;99.20
22925;DHT22;11628;51.072;3.712;2023-04-25T08:16:28;16.60;98.80
22925;DHT22;11628;51.072;3.712;2023-04-25T08:18:54;16.50;99.00
22925;DHT22;11628;51.072;3.712;2023-04-25T08:21:20;16.50;99.10
22925;DHT22;11628;51.072;3.712;2023-04-25T08:23:46;16.40;99.30
22925;DHT22;11628;51.072;3.712;2023-04-25T08:26:12;16.50;98.80
22925;DHT22;11628;51.072;3.712;2023-04-25T08:28:38;16.70;97.40
22925;DHT22;11628;51.072;3.712;2023-04-25T08:31:04;16.90;95.60
22925;DHT22;11628;51.072;3.712;2023-04-25T08:33:30;17.20;94.80
22925;DHT22;11628;51.072;3.712;2023-04-25T08:35:55;17.30;95.10
22925;DHT22;11628;51.072;3.712;2023-04-25T08:38:21;17.70;94.30
22925;DHT22;11628;51.072;3.712;2023-04-25T08:40:50;18.30;92.50
22925;DHT22;11628;51.072;3.712;2023-04-25T08:43:18;19.80;91.90
22925;DHT22;11628;51.072;3.712;2023-04-25T08:45:44;21.00;89.60
22925;DHT22;11628;51.072;3.712;2023-04-25T08:48:13;23.30;84.70
22925;DHT22;11628;51.072;3.712;2023-04-25T08:50:45;26.20;76.70
22925;DHT22;11628;51.072;3.712;2023-04-25T08:53:16;28.90;66.10
22925;DHT22;11628;51.072;3.712;2023-04-25T08:55:45;31.10;57.20
22925;DHT22;11628;51.072;3.712;2023-04-25T08:58:12;32.70;53.30
22925;DHT22;11628;51.072;3.712;2023-04-25T09:00:38;32.10;51.80
22925;DHT22;11628;51.072;3.712;2023-04-25T09:03:04;29.50;53.40
22925;DHT22;11628;51.072;3.712;2023-04-25T09:05:31;26.80;55.40
22925;DHT22;11628;51.072;3.712;2023-04-25T09:07:57;24.80;57.30
22925;DHT22;11628;51.072;3.712;2023-04-25T09:10:23;23.10;62.60
22925;DHT22;11628;51.072;3.712;2023-04-25T09:13:06;22.00;69.80
22925;DHT22;11628;51.072;3.712;2023-04-25T09:15:32;20.60;74.00
22925;DHT22;11628;51.072;3.712;2023-04-25T09:18:01;19.40;76.80
22925;DHT22;11628;51.072;3.712;2023-04-25T09:20:28;18.40;79.70
22925;DHT22;11628;51.072;3.712;2023-04-25T09:23:04;17.50;82.70
22925;DHT22;11628;51.072;3.712;2023-04-25T09:25:34;16.90;84.10
22925;DHT22;11628;51.072;3.712;2023-04-25T09:28:05;16.50;85.50
22925;DHT22;11628;51.072;3.712;2023-04-25T09:30:33;16.20;87.00
22925;DHT22;11628;51.072;3.712;2023-04-25T09:33:12;16.10;86.90
22925;DHT22;11628;51.072;3.712;2023-04-25T09:35:39;16.20;86.00
22925;DHT22;11628;51.072;3.712;2023-04-25T09:38:12;18.50;82.90
22925;DHT22;11628;51.072;3.712;2023-04-25T09:40:46;23.40;73.70
22925;DHT22;11628;51.072;3.712;2023-04-25T09:43:22;28.00;63.30
22925;DHT22;11628;51.072;3.712;2023-04-25T09:45:49;30.60;58.10
22925;DHT22;11628;51.072;3.712;2023-04-25T09:48:18;31.60;55.20
22925;DHT22;11628;51.072;3.712;2023-04-25T09:50:46;31.30;54.50
22925;DHT22;11628;51.072;3.712;2023-04-25T09:53:29;30.70;53.90
22925;DHT22;11628;51.072;3.712;2023-04-25T09:55:55;29.40;54.80
22925;DHT22;11628;51.072;3.712;2023-04-25T09:58:24;28.20;55.70
22925;DHT22;11628;51.072;3.712;2023-04-25T10:00:51;27.20;55.60
22925;DHT22;11628;51.072;3.712;2023-04-25T10:03:17;26.20;56.60
22925;DHT22;11628;51.072;3.712;2023-04-25T10:05:44;25.40;57.30
22925;DHT22;11628;51.072;3.712;2023-04-25T10:08:12;24.50;58.50
22925;DHT22;11628;51.072;3.712;2023-04-25T10:10:40;24.10;59.20
22925;DHT22;11628;51.072;3.712;2023-04-25T10:13:06;24.10;59.60
22925;DHT22;11628;51.072;3.712;2023-04-25T10:15:35;25.30;59.50
22925;DHT22;11628;51.072;3.712;2023-04-25T10:18:05;27.80;56.90
22925;DHT22;11628;51.072;3.712;2023-04-25T10:20:32;28.20;55.10
22925;DHT22;11628;51.072;3.712;2023-04-25T10:23:06;26.80;55.20
22925;DHT22;11628;51.072;3.712;2023-04-25T10:25:35;24.80;57.60
22925;DHT22;11628;51.072;3.712;2023-04-25T10:28:03;22.90;60.70
22925;DHT22;11628;51.072;3.712;2023-04-25T10:30:29;21.90;63.60
22925;DHT22;11628;51.072;3.712;2023-04-25T10:32:55;21.20;66.60
22925;DHT22;11628;51.072;3.712;2023-04-25T10:35:29;21.20;68.00
22925;DHT22;11628;51.072;3.712;2023-04-25T10:38:03;21.80;67.40
22925;DHT22;11628;51.072;3.712;2023-04-25T10:40:30;23.10;64.50
22925;DHT22;11628;51.072;3.712;2023-04-25T10:46:26;24.80;60.80
22925;DHT22;11628;51.072;3.712;2023-04-25T10:48:57;24.20;61.70
22925;DHT22;11628;51.072;3.712;2023-04-25T10:51:25;23.60;62.10
22925;DHT22;11628;51.072;3.712;2023-04-25T10:56:28;23.10;63.30
22925;DHT22;11628;51.072;3.712;2023-04-25T10:59:11;23.10;63.30
22925;DHT22;11628;51.072;3.712;2023-04-25T11:01:45;23.60;62.10
22925;DHT22;11628;51.072;3.712;2023-04-25T11:04:22;23.60;60.90
22925;DHT22;11628;51.072;3.712;2023-04-25T11:07:12;23.70;58.90
22925;DHT22;11628;51.072;3.712;2023-04-25T11:09:40;23.60;57.70
22925;DHT22;11628;51.072;3.712;2023-04-25T11:12:10;23.80;59.10
22925;DHT22;11628;51.072;3.712;2023-04-25T11:14:37;25.00;58.30
22925;DHT22;11628;51.072;3.712;2023-04-25T11:17:02;27.30;55.40
22925;DHT22;11628;51.072;3.712;2023-04-25T11:19:29;27.30;55.40
22925;DHT22;11628;51.072;3.712;2023-04-25T11:21:56;26.90;54.80
22925;DHT22;11628;51.072;3.712;2023-04-25T11:24:32;26.50;54.60
22925;DHT22;11628;51.072;3.712;2023-04-25T11:27:02;26.70;55.20
22925;DHT22;11628;51.072;3.712;2023-04-25T11:29:29;27.80;53.50
22925;DHT22;11628;51.072;3.712;2023-04-25T11:31:56;28.00;52.40
22925;DHT22;11628;51.072;3.712;2023-04-25T11:34:26;27.30;54.00
22925;DHT22;11628;51.072;3.712;2023-04-25T11:36:52;26.80;54.40
22925;DHT22;11628;51.072;3.712;2023-04-25T11:39:21;26.50;54.90
22925;DHT22;11628;51.072;3.712;2023-04-25T11:41:47;25.90;55.80
22925;DHT22;11628;51.072;3.712;2023-04-25T11:44:16;26.30;56.20
22925;DHT22;11628;51.072;3.712;2023-04-25T11:46:42;27.20;55.40
22925;DHT22;11628;51.072;3.712;2023-04-25T11:49:09;27.90;54.50
22925;DHT22;11628;51.072;3.712;2023-04-25T11:51:42;29.30;53.90
22925;DHT22;11628;51.072;3.712;2023-04-25T11:54:08;30.30;52.70
22925;DHT22;11628;51.072;3.712;2023-04-25T11:56:34;29.70;50.00
22925;DHT22;11628;51.072;3.712;2023-04-25T11:59:02;28.40;50.70
22925;DHT22;11628;51.072;3.712;2023-04-25T12:01:36;27.40;52.80
22925;DHT22;11628;51.072;3.712;2023-04-25T12:04:19;29.10;52.40
22925;DHT22;11628;51.072;3.712;2023-04-25T12:06:47;30.90;50.20
22925;DHT22;11628;51.072;3.712;2023-04-25T12:09:15;31.40;50.00
22925;DHT22;11628;51.072;3.712;2023-04-25T12:11:54;30.90;50.70
22925;DHT22;11628;51.072;3.712;2023-04-25T12:14:27;31.50;50.90
22925;DHT22;11628;51.072;3.712;2023-04-25T12:17:02;33.10;48.70
22925;DHT22;11628;51.072;3.712;2023-04-25T12:19:36;32.10;48.30
22925;DHT22;11628;51.072;3.712;2023-04-25T12:22:03;31.80;48.90
22925;DHT22;11628;51.072;3.712;2023-04-25T12:24:29;32.10;48.20
22925;DHT22;11628;51.072;3.712;2023-04-25T12:27:02;31.10;48.80
22925;DHT22;11628;51.072;3.712;2023-04-25T12:29:32;29.60;48.70
22925;DHT22;11628;51.072;3.712;2023-04-25T12:31:59;27.90;49.80
22925;DHT22;11628;51.072;3.712;2023-04-25T12:34:27;26.20;51.40
22925;DHT22;11628;51.072;3.712;2023-04-25T12:36:54;25.00;53.20
22925;DHT22;11628;51.072;3.712;2023-04-25T12:39:24;23.90;54.40
22925;DHT22;11628;51.072;3.712;2023-04-25T12:41:53;23.00;56.00
22925;DHT22;11628;51.072;3.712;2023-04-25T12:44:20;22.70;57.10
22925;DHT22;11628;51.072;3.712;2023-04-25T12:46:46;22.90;58.30
22925;DHT22;11628;51.072;3.712;2023-04-25T12:49:14;22.90;58.30
22925;DHT22;11628;51.072;3.712;2023-04-25T12:51:40;22.70;58.90
22925;DHT22;11628;51.072;3.712;2023-04-25T12:54:07;22.30;59.30
22925;DHT22;11628;51.072;3.712;2023-04-25T12:56:34;21.90;59.30
22925;DHT22;11628;51.072;3.712;2023-04-25T12:58:59;21.40;60.70
22925;DHT22;11628;51.072;3.712;2023-04-25T13:01:25;21.10;61.30
22925;DHT22;11628;51.072;3.712;2023-04-25T13:03:52;20.80;61.80
22925;DHT22;11628;51.072;3.712;2023-04-25T13:06:19;20.40;62.20
22925;DHT22;11628;51.072;3.712;2023-04-25T13:08:45;20.30;63.60
22925;DHT22;11628;51.072;3.712;2023-04-25T13:11:11;21.40;63.60
22925;DHT22;11628;51.072;3.712;2023-04-25T13:13:37;24.40;58.50
22925;DHT22;11628;51.072;3.712;2023-04-25T13:16:07;27.10;55.70
22925;DHT22;11628;51.072;3.712;2023-04-25T13:18:33;29.40;53.00
22925;DHT22;11628;51.072;3.712;2023-04-25T13:21:02;29.40;52.20
22925;DHT22;11628;51.072;3.712;2023-04-25T13:23:29;28.40;53.50
22925;DHT22;11628;51.072;3.712;2023-04-25T13:25:55;27.40;55.20
22925;DHT22;11628;51.072;3.712;2023-04-25T13:28:24;25.50;56.80
22925;DHT22;11628;51.072;3.712;2023-04-25T13:30:49;24.00;58.80
22925;DHT22;11628;51.072;3.712;2023-04-25T13:33:15;23.20;60.00
22925;DHT22;11628;51.072;3.712;2023-04-25T13:35:42;22.50;61.10
22925;DHT22;11628;51.072;3.712;2023-04-25T13:38:08;22.30;61.50
22925;DHT22;11628;51.072;3.712;2023-04-25T13:40:34;23.70;59.50
22925;DHT22;11628;51.072;3.712;2023-04-25T13:43:01;25.90;56.50
22925;DHT22;11628;51.072;3.712;2023-04-25T13:45:27;27.70;53.80
22925;DHT22;11628;51.072;3.712;2023-04-25T13:47:53;29.40;53.80
22925;DHT22;11628;51.072;3.712;2023-04-25T13:50:18;30.80;50.60
22925;DHT22;11628;51.072;3.712;2023-04-25T13:52:44;30.80;49.20
22925;DHT22;11628;51.072;3.712;2023-04-25T13:55:10;29.30;50.60
22925;DHT22;11628;51.072;3.712;2023-04-25T13:57:37;28.00;51.60
22925;DHT22;11628;51.072;3.712;2023-04-25T14:00:04;27.00;52.70
22925;DHT22;11628;51.072;3.712;2023-04-25T14:02:37;26.60;52.80
22925;DHT22;11628;51.072;3.712;2023-04-25T14:05:04;27.20;52.10
22925;DHT22;11628;51.072;3.712;2023-04-25T14:07:30;28.60;51.10
22925;DHT22;11628;51.072;3.712;2023-04-25T14:09:57;29.80;50.50
22925;DHT22;11628;51.072;3.712;2023-04-25T14:12:23;30.90;49.00
22925;DHT22;11628;51.072;3.712;2023-04-25T14:14:49;31.60;47.90
22925;DHT22;11628;51.072;3.712;2023-04-25T14:17:14;32.10;47.40
22925;DHT22;11628;51.072;3.712;2023-04-25T14:19:40;31.80;47.40
22925;DHT22;11628;51.072;3.712;2023-04-25T14:22:09;32.20;47.60
22925;DHT22;11628;51.072;3.712;2023-04-25T14:24:34;32.60;47.70
22925;DHT22;11628;51.072;3.712;2023-04-25T14:27:00;32.90;47.30
22925;DHT22;11628;51.072;3.712;2023-04-25T14:29:26;33.10;47.30
22925;DHT22;11628;51.072;3.712;2023-04-25T14:31:52;32.20;47.60
22925;DHT22;11628;51.072;3.712;2023-04-25T14:34:19;31.30;46.30
22925;DHT22;11628;51.072;3.712;2023-04-25T14:36:44;29.80;47.00
22925;DHT22;11628;51.072;3.712;2023-04-25T14:39:10;29.00;48.00
22925;DHT22;11628;51.072;3.712;2023-04-25T14:41:37;29.00;47.80
22925;DHT22;11628;51.072;3.712;2023-04-25T14:44:03;28.10;48.30
22925;DHT22;11628;51.072;3.712;2023-04-25T14:46:29;27.20;49.60
22925;DHT22;11628;51.072;3.712;2023-04-25T14:48:55;26.30;50.60
22925;DHT22;11628;51.072;3.712;2023-04-25T14:51:21;25.40;51.50
22925;DHT22;11628;51.072;3.712;2023-04-25T14:53:47;24.60;52.60
22925;DHT22;11628;51.072;3.712;2023-04-25T14:56:13;23.90;53.60
22925;DHT22;11628;51.072;3.712;2023-04-25T14:58:39;23.30;54.50
22925;DHT22;11628;51.072;3.712;2023-04-25T15:01:05;22.80;55.20
22925;DHT22;11628;51.072;3.712;2023-04-25T15:03:32;22.30;55.90
22925;DHT22;11628;51.072;3.712;2023-04-25T15:05:58;22.00;56.90
22925;DHT22;11628;51.072;3.712;2023-04-25T15:08:23;21.80;57.40
22925;DHT22;11628;51.072;3.712;2023-04-25T15:10:49;22.40;56.80
22925;DHT22;11628;51.072;3.712;2023-04-25T15:13:18;23.20;55.80
22925;DHT22;11628;51.072;3.712;2023-04-25T15:15:44;24.30;54.10
22925;DHT22;11628;51.072;3.712;2023-04-25T15:18:10;25.20;52.30
22925;DHT22;11628;51.072;3.712;2023-04-25T15:20:35;25.90;51.80
22925;DHT22;11628;51.072;3.712;2023-04-25T15:23:01;26.30;51.60
22925;DHT22;11628;51.072;3.712;2023-04-25T15:25:28;26.60;52.00
22925;DHT22;11628;51.072;3.712;2023-04-25T15:27:54;26.70;51.90
22925;DHT22;11628;51.072;3.712;2023-04-25T15:30:20;26.60;52.10
22925;DHT22;11628;51.072;3.712;2023-04-25T15:32:46;26.30;52.10
22925;DHT22;11628;51.072;3.712;2023-04-25T15:35:13;25.90;51.50